Time;durP1;ratioP1;P1;durP2;ratioP2;P2;SDS_P1;SDS_P2;PMS_P1;PMS_P2;Temp;Humidity;BMP_temperature;BMP_pressure;BME280_temperature;BME280_humidity;BME280_pressure;Samples;Min_cycle;Max_cycle;Signal;HPM_P1;HPM_P2
2021/03/01 00:00:41;;;;;;;24.95;12.93;;;1.80;10.80;;;;;;4903143;29;20084;-75
2021/03/01 00:03:09;;;;;;;24.67;13.20;;;1.70;11.40;;;;;;4900122;29;20052;-75
2021/03/01 00:05:36;;;;;;;24.58;12.95;;;1.70;12.00;;;;;;4907101;29;20699;-76
2021/03/01 00:08:04;;;;;;;26.23;13.70;;;1.70;12.10;;;;;;4901801;29;20130;-76
2021/03/01 00:10:32;;;;;;;24.05;13.70;;;1.60;12.50;;;;;;4901719;29;20053;-76
2021/03/01 00:13:00;;;;;;;25.42;13.75;;;1.80;12.50;;;;;;4902295;29;20245;-75
2021/03/01 00:15:27;;;;;;;21.50;12.32;;;1.80;11.60;;;;;;4909188;29;20053;-76
2021/03/01 00:17:54;;;;;;;24.45;13.80;;;1.60;11.80;;;;;;4902764;29;20525;-76
2021/03/01 00:20:22;;;;;;;25.23;14.02;;;1.60;12.10;;;;;;4900624;29;20498;-75
2021/03/01 00:22:49;;;;;;;26.23;14.15;;;1.50;12.80;;;;;;4899305;29;20147;-74
2021/03/01 00:25:16;;;;;;;25.83;14.38;;;1.40;12.90;;;;;;4907296;29;20056;-75
2021/03/01 00:27:44;;;;;;;27.33;14.02;;;1.40;13.40;;;;;;4900662;29;20048;-74
2021/03/01 00:30:12;;;;;;;29.35;15.90;;;1.40;13.80;;;;;;4903487;29;20052;-76
2021/03/01 00:32:39;;;;;;;25.40;13.40;;;1.20;13.70;;;;;;4896329;29;20063;-74
2021/03/01 00:35:09;;;;;;;28.48;14.60;;;1.20;14.20;;;;;;4897598;29;20495;-74
2021/03/01 00:37:36;;;;;;;29.13;14.63;;;1.10;14.80;;;;;;4903420;29;20469;-76
2021/03/01 00:40:07;;;;;;;25.15;14.05;;;1.10;16.00;;;;;;4906823;29;20128;-76
2021/03/01 00:42:34;;;;;;;26.20;14.45;;;1.00;16.10;;;;;;4903664;29;20045;-76
2021/03/01 00:45:03;;;;;;;28.77;15.50;;;1.10;17.30;;;;;;4900240;29;20053;-75
2021/03/01 00:47:30;;;;;;;29.70;15.95;;;1.20;15.80;;;;;;4901001;29;20140;-75
2021/03/01 00:49:57;;;;;;;30.05;15.23;;;1.00;15.70;;;;;;4907869;29;20430;-75
2021/03/01 00:52:25;;;;;;;31.25;16.65;;;1.00;16.70;;;;;;4908932;29;20047;-75
2021/03/01 00:54:52;;;;;;;32.47;17.15;;;0.90;17.70;;;;;;4903613;29;20052;-76
2021/03/01 00:57:19;;;;;;;28.65;17.25;;;0.90;18.00;;;;;;4901990;29;20062;-74
2021/03/01 00:59:46;;;;;;;35.25;17.13;;;0.90;19.40;;;;;;4913060;29;20060;-76
2021/03/01 01:02:13;;;;;;;28.63;16.65;;;0.80;19.60;;;;;;4902861;29;20467;-74
2021/03/01 01:04:40;;;;;;;29.40;16.98;;;0.70;20.00;;;;;;4905288;29;20083;-76
2021/03/01 01:07:07;;;;;;;29.48;15.75;;;0.70;20.30;;;;;;4908922;29;21394;-75
2021/03/01 01:09:34;;;;;;;28.63;15.82;;;0.70;20.30;;;;;;4905471;29;20057;-75
2021/03/01 01:12:01;;;;;;;29.27;17.48;;;0.70;20.30;;;;;;4905317;29;20051;-75
2021/03/01 01:14:28;;;;;;;29.58;15.40;;;0.60;20.20;;;;;;4893748;29;20063;-75
2021/03/01 01:16:55;;;;;;;36.65;17.45;;;0.70;21.30;;;;;;4901149;29;20063;-75
2021/03/01 01:19:23;;;;;;;30.13;16.70;;;0.60;20.90;;;;;;4914467;29;20216;-76
2021/03/01 01:21:50;;;;;;;32.75;16.65;;;0.80;21.80;;;;;;4907636;29;20388;-76
2021/03/01 01:24:16;;;;;;;30.98;16.08;;;0.70;20.30;;;;;;4903721;29;20054;-76
2021/03/01 01:26:43;;;;;;;30.38;16.80;;;0.60;20.30;;;;;;4906076;29;20443;-74
2021/03/01 01:29:10;;;;;;;29.00;16.75;;;0.40;21.10;;;;;;4911037;29;20052;-74
2021/03/01 01:31:37;;;;;;;29.00;17.52;;;0.50;22.10;;;;;;4904849;29;20061;-74
2021/03/01 01:34:04;;;;;;;32.35;17.27;;;0.40;22.60;;;;;;4895801;29;20120;-75
2021/03/01 01:36:32;;;;;;;32.10;16.83;;;0.40;23.80;;;;;;4899724;29;20056;-75
2021/03/01 01:38:59;;;;;;;30.70;17.23;;;0.50;23.70;;;;;;4905350;29;20053;-75
2021/03/01 01:41:26;;;;;;;31.85;17.98;;;0.50;24.00;;;;;;4910545;29;20046;-75
2021/03/01 01:43:53;;;;;;;30.95;18.25;;;0.50;23.70;;;;;;4902283;29;20066;-76
2021/03/01 01:46:20;;;;;;;32.33;17.67;;;0.60;24.00;;;;;;4904219;29;20064;-76
2021/03/01 01:48:48;;;;;;;31.20;17.27;;;0.50;23.30;;;;;;4903411;29;20515;-76
2021/03/01 01:51:15;;;;;;;32.75;17.60;;;0.40;23.50;;;;;;4907985;29;20044;-75
2021/03/01 01:53:43;;;;;;;31.10;17.33;;;0.50;24.30;;;;;;4902100;29;20522;-74
2021/03/01 01:56:10;;;;;;;28.33;17.60;;;0.50;24.30;;;;;;4909985;29;20063;-75
2021/03/01 01:58:37;;;;;;;27.27;16.27;;;0.60;23.50;;;;;;4903929;29;20061;-76
2021/03/01 02:01:06;;;;;;;28.80;15.82;;;0.60;22.90;;;;;;4909265;29;20048;-75
2021/03/01 02:03:42;;;;;;;28.85;16.27;;;0.70;22.10;;;;;;4903399;29;20056;-76
2021/03/01 02:06:18;;;;;;;24.05;14.98;;;0.80;21.80;;;;;;4907748;29;20051;-75
2021/03/01 02:09:06;;;;;;;25.88;15.80;;;0.80;21.00;;;;;;4902426;29;20525;-76
2021/03/01 02:11:47;;;;;;;29.23;15.65;;;0.60;20.20;;;;;;4902793;29;20123;-74
2021/03/01 02:14:22;;;;;;;28.13;15.40;;;0.60;20.30;;;;;;4906026;29;20058;-75
2021/03/01 02:16:49;;;;;;;26.02;14.57;;;0.50;21.50;;;;;;4907379;29;20049;-74
2021/03/01 02:19:17;;;;;;;28.25;15.90;;;0.50;21.10;;;;;;4905413;29;20066;-74
2021/03/01 02:21:46;;;;;;;26.73;14.90;;;0.50;21.50;;;;;;4906296;29;20099;-76
2021/03/01 02:24:15;;;;;;;27.25;14.50;;;0.50;22.20;;;;;;4901193;29;20048;-75
2021/03/01 02:26:46;;;;;;;26.95;15.10;;;0.60;21.90;;;;;;4905465;29;20539;-75
2021/03/01 02:29:18;;;;;;;27.33;14.65;;;0.60;21.30;;;;;;4909632;29;20050;-74
2021/03/01 02:31:46;;;;;;;23.85;14.80;;;0.50;20.30;;;;;;4904287;29;20127;-74
2021/03/01 02:34:17;;;;;;;23.85;14.38;;;0.40;20.50;;;;;;4899805;29;20060;-74
2021/03/01 02:36:49;;;;;;;27.38;14.85;;;0.40;21.00;;;;;;4908636;29;20076;-75
2021/03/01 02:39:18;;;;;;;29.48;15.20;;;0.40;22.10;;;;;;4901513;29;20052;-75
2021/03/01 02:41:47;;;;;;;27.42;14.60;;;0.40;22.00;;;;;;4903567;29;20067;-75
2021/03/01 02:44:16;;;;;;;27.10;14.98;;;0.40;22.40;;;;;;4903192;29;20087;-74
2021/03/01 02:50:31;;;;;;;27.17;15.63;;;0.20;22.70;;;;;;4909541;29;20084;-74
2021/03/01 02:53:00;;;;;;;24.60;13.27;;;0.10;23.40;;;;;;4896828;29;20904;-73
2021/03/01 02:55:28;;;;;;;27.15;14.48;;;0.30;23.80;;;;;;4909052;29;20442;-75
2021/03/01 02:58:09;;;;;;;27.73;14.23;;;0.30;23.00;;;;;;4901715;29;20103;-74
2021/03/01 03:00:37;;;;;;;23.83;14.18;;;0.30;22.40;;;;;;4903891;29;20503;-74
2021/03/01 03:03:07;;;;;;;24.25;14.23;;;0.10;22.20;;;;;;4897681;29;20055;-75
2021/03/01 03:05:35;;;;;;;25.80;14.60;;;0.10;23.10;;;;;;4906675;29;20048;-75
2021/03/01 03:08:05;;;;;;;23.80;14.18;;;0.10;22.90;;;;;;4900285;29;20050;-75
2021/03/01 03:10:33;;;;;;;25.00;14.60;;;0.10;23.90;;;;;;4902056;29;20060;-76
2021/03/01 03:13:00;;;;;;;25.17;15.40;;;0.20;23.40;;;;;;4899756;29;20076;-74
2021/03/01 03:15:30;;;;;;;25.10;15.60;;;0.10;23.80;;;;;;4908893;29;20127;-75
2021/03/01 03:17:59;;;;;;;25.88;15.27;;;0.20;24.00;;;;;;4899398;29;20688;-74
2021/03/01 03:20:26;;;;;;;28.08;15.70;;;0.30;23.10;;;;;;4904299;29;20079;-75
2021/03/01 03:22:53;;;;;;;27.20;14.50;;;0.20;22.90;;;;;;4901614;29;20755;-75
2021/03/01 03:25:20;;;;;;;28.80;16.25;;;0.20;23.40;;;;;;4899440;29;20082;-76
2021/03/01 03:27:47;;;;;;;30.92;16.38;;;0.20;23.40;;;;;;4899088;29;20060;-73
2021/03/01 03:30:17;;;;;;;25.75;15.68;;;0.10;23.30;;;;;;4906421;29;20545;-73
2021/03/01 03:32:44;;;;;;;26.60;15.65;;;0.10;23.30;;;;;;4900120;29;20400;-74
2021/03/01 03:35:12;;;;;;;26.60;14.98;;;0.00;23.80;;;;;;4905015;29;20052;-74
2021/03/01 03:37:44;;;;;;;27.92;16.08;;;0.00;24.10;;;;;;4902482;29;20052;-74
2021/03/01 03:40:14;;;;;;;27.77;16.05;;;-0.10;24.00;;;;;;4904001;29;20058;-74
2021/03/01 03:42:42;;;;;;;29.92;16.92;;;-0.20;25.10;;;;;;4898440;29;20052;-74
2021/03/01 03:45:13;;;;;;;27.10;16.02;;;-0.10;25.30;;;;;;4900364;29;20049;-73
2021/03/01 03:47:44;;;;;;;25.67;15.65;;;-0.10;26.10;;;;;;4900056;29;20063;-75
2021/03/01 03:50:13;;;;;;;24.27;15.25;;;-0.10;25.50;;;;;;4897454;29;20146;-74
2021/03/01 03:52:43;;;;;;;26.38;15.77;;;-0.10;25.60;;;;;;4903821;29;20135;-73
2021/03/01 03:55:15;;;;;;;28.67;16.55;;;-0.10;25.60;;;;;;4904736;29;20063;-73
2021/03/01 03:57:54;;;;;;;27.95;15.60;;;-0.20;25.40;;;;;;4901787;29;20071;-74
2021/03/01 04:00:23;;;;;;;34.25;16.98;;;-0.20;26.40;;;;;;4901567;29;20060;-74
2021/03/01 04:02:53;;;;;;;25.25;15.27;;;-0.10;26.50;;;;;;4900806;29;20524;-74
2021/03/01 04:05:21;;;;;;;25.85;14.82;;;-0.10;25.70;;;;;;4906635;29;20059;-74
2021/03/01 04:07:50;;;;;;;25.23;15.77;;;0.00;25.20;;;;;;4902420;29;20071;-74
2021/03/01 04:10:17;;;;;;;28.67;16.40;;;-0.10;25.40;;;;;;4900578;29;20431;-74
2021/03/01 04:12:48;;;;;;;30.13;15.30;;;-0.20;25.60;;;;;;4904149;29;20049;-73
2021/03/01 04:15:17;;;;;;;30.75;15.98;;;-0.20;26.00;;;;;;4901316;29;20049;-74
2021/03/01 04:17:46;;;;;;;31.25;15.35;;;-0.10;26.10;;;;;;4897416;29;20060;-74
2021/03/01 04:20:17;;;;;;;28.95;15.40;;;-0.10;25.40;;;;;;4903474;29;20075;-74
2021/03/01 04:22:45;;;;;;;30.77;16.35;;;-0.10;25.80;;;;;;4899939;29;20052;-74
2021/03/01 04:25:12;;;;;;;28.95;16.38;;;-0.10;26.50;;;;;;4903808;29;20048;-75
2021/03/01 04:27:40;;;;;;;31.52;15.85;;;-0.20;25.50;;;;;;4908704;29;20057;-74
2021/03/01 04:30:10;;;;;;;28.45;15.40;;;-0.20;26.00;;;;;;4906081;29;20414;-73
2021/03/01 04:32:41;;;;;;;28.83;16.05;;;-0.30;25.80;;;;;;4904531;29;20059;-73
2021/03/01 04:35:10;;;;;;;30.67;16.63;;;-0.30;26.40;;;;;;4905586;29;20143;-74
2021/03/01 04:37:37;;;;;;;29.40;16.65;;;-0.50;26.00;;;;;;4903086;29;20083;-74
2021/03/01 04:40:05;;;;;;;27.77;16.15;;;-0.40;27.60;;;;;;4906290;29;20056;-74
2021/03/01 04:42:33;;;;;;;26.17;16.20;;;-0.40;26.50;;;;;;4902439;29;20052;-73
2021/03/01 04:45:00;;;;;;;28.90;15.60;;;-0.50;27.30;;;;;;4906398;29;20054;-75
2021/03/01 04:47:30;;;;;;;27.00;15.23;;;-0.60;27.80;;;;;;4903610;29;20059;-74
2021/03/01 04:49:58;;;;;;;30.20;15.73;;;-0.60;28.30;;;;;;4903552;29;20053;-75
2021/03/01 04:52:31;;;;;;;28.90;15.68;;;-0.70;28.10;;;;;;4905921;29;20562;-75
2021/03/01 04:55:00;;;;;;;31.48;16.23;;;-0.70;28.80;;;;;;4904569;29;20050;-75
2021/03/01 04:57:28;;;;;;;25.42;15.35;;;-0.60;29.50;;;;;;4901186;29;20060;-75
2021/03/01 04:59:55;;;;;;;34.97;16.70;;;-0.60;29.50;;;;;;4908607;29;20148;-74
2021/03/01 05:02:23;;;;;;;28.83;16.95;;;-0.60;29.10;;;;;;4905809;29;20048;-74
2021/03/01 05:04:51;;;;;;;36.75;18.40;;;-0.70;29.00;;;;;;4901752;29;20048;-75
2021/03/01 05:07:20;;;;;;;33.83;17.95;;;-0.70;30.00;;;;;;4906699;29;20507;-75
2021/03/01 05:09:48;;;;;;;31.85;18.08;;;-0.80;30.00;;;;;;4908266;29;20048;-75
2021/03/01 05:12:15;;;;;;;31.27;17.60;;;-0.80;30.00;;;;;;4905756;29;20055;-75
2021/03/01 05:14:41;;;;;;;29.38;17.08;;;-0.80;31.50;;;;;;4897726;29;20499;-75
2021/03/01 05:17:09;;;;;;;30.20;17.80;;;-0.80;31.10;;;;;;4906700;29;20064;-74
2021/03/01 05:19:36;;;;;;;32.17;16.85;;;-0.80;31.80;;;;;;4908390;29;20102;-74
2021/03/01 05:22:03;;;;;;;29.08;17.20;;;-0.80;31.70;;;;;;4907066;29;20062;-74
2021/03/01 05:24:30;;;;;;;29.55;16.70;;;-0.80;31.90;;;;;;4906611;29;20535;-75
2021/03/01 05:26:58;;;;;;;29.02;17.27;;;-0.80;31.20;;;;;;4902840;29;20061;-75
2021/03/01 05:29:25;;;;;;;32.30;17.42;;;-1.00;31.50;;;;;;4905580;29;20052;-75
2021/03/01 05:31:52;;;;;;;34.58;18.20;;;-1.00;32.00;;;;;;4907275;29;20157;-76
2021/03/01 05:34:19;;;;;;;28.45;17.52;;;-1.10;33.00;;;;;;4897001;29;20053;-76
2021/03/01 05:36:46;;;;;;;32.03;16.95;;;-1.00;33.10;;;;;;4903844;29;20052;-73
2021/03/01 05:39:14;;;;;;;31.13;17.10;;;-1.00;33.10;;;;;;4908020;29;20399;-75
2021/03/01 05:41:41;;;;;;;34.53;19.98;;;-1.00;33.10;;;;;;4911073;29;20048;-75
2021/03/01 05:44:09;;;;;;;35.35;18.23;;;-1.00;33.10;;;;;;4903207;29;20481;-75
2021/03/01 05:46:36;;;;;;;31.40;17.48;;;-0.90;33.20;;;;;;4909984;29;20059;-76
2021/03/01 05:49:04;;;;;;;33.47;17.67;;;-1.00;33.10;;;;;;4911244;29;20099;-76
2021/03/01 05:51:34;;;;;;;35.95;18.75;;;-1.00;33.10;;;;;;4896937;29;20054;-75
2021/03/01 05:54:03;;;;;;;35.85;18.48;;;-1.00;33.30;;;;;;4900767;29;20115;-75
2021/03/01 05:56:33;;;;;;;33.97;18.63;;;-1.00;33.10;;;;;;4909882;29;20518;-73
2021/03/01 05:59:00;;;;;;;34.20;17.55;;;-0.90;33.20;;;;;;4900135;29;20044;-75
2021/03/01 06:01:27;;;;;;;38.97;18.17;;;-0.90;32.80;;;;;;4909394;29;20056;-75
2021/03/01 06:03:54;;;;;;;28.58;16.48;;;-0.90;32.40;;;;;;4901961;29;20056;-74
2021/03/01 06:06:21;;;;;;;33.55;18.00;;;-0.90;31.90;;;;;;4903710;29;20055;-75
2021/03/01 06:08:49;;;;;;;36.63;19.13;;;-0.90;31.20;;;;;;4901949;29;20415;-75
2021/03/01 06:11:15;;;;;;;36.85;19.25;;;-1.00;31.20;;;;;;4905050;29;20052;-75
2021/03/01 06:13:43;;;;;;;32.72;19.08;;;-1.00;31.70;;;;;;4899629;29;20060;-74
2021/03/01 06:16:10;;;;;;;30.77;18.65;;;-1.00;32.20;;;;;;4909803;29;20063;-74
2021/03/01 06:18:43;;;;;;;34.17;18.70;;;-1.00;32.90;;;;;;4903969;29;20108;-74
2021/03/01 06:21:12;;;;;;;42.03;20.63;;;-0.90;33.20;;;;;;4904026;29;20067;-74
2021/03/01 06:23:41;;;;;;;37.60;19.50;;;-0.90;33.20;;;;;;4902433;29;20678;-74
2021/03/01 06:26:25;;;;;;;38.95;20.65;;;-0.80;33.90;;;;;;4902672;29;20044;-73
2021/03/01 06:28:55;;;;;;;40.50;19.67;;;-0.80;33.20;;;;;;4903450;29;20048;-75
2021/03/01 06:31:33;;;;;;;35.45;20.23;;;-0.70;32.30;;;;;;4907250;29;20388;-75
2021/03/01 06:34:20;;;;;;;40.28;21.50;;;-0.60;32.00;;;;;;4897935;29;20047;-73
2021/03/01 06:36:59;;;;;;;35.45;19.02;;;-0.50;30.50;;;;;;4902957;29;20056;-73
2021/03/01 06:39:29;;;;;;;34.38;19.48;;;-0.40;29.60;;;;;;4903880;29;20058;-74
2021/03/01 06:41:56;;;;;;;37.65;20.42;;;-0.30;29.30;;;;;;4901374;29;20052;-74
2021/03/01 06:44:24;;;;;;;31.08;18.80;;;-0.30;28.50;;;;;;4901098;29;20052;-75
2021/03/01 06:46:53;;;;;;;34.92;19.27;;;-0.20;28.20;;;;;;4898088;29;20521;-75
2021/03/01 06:49:21;;;;;;;33.05;18.27;;;-0.10;27.90;;;;;;4906786;29;20112;-75
2021/03/01 06:51:48;;;;;;;36.58;20.10;;;0.10;27.30;;;;;;4903436;29;20055;-75
2021/03/01 06:54:22;;;;;;;31.30;18.38;;;0.10;26.60;;;;;;4902437;29;20059;-76
2021/03/01 06:56:49;;;;;;;35.95;19.35;;;0.20;26.40;;;;;;4906354;29;20079;-77
2021/03/01 06:59:18;;;;;;;31.85;17.98;;;0.20;25.20;;;;;;4909458;29;20059;-75
2021/03/01 07:01:50;;;;;;;32.78;18.65;;;0.30;24.30;;;;;;4896039;29;20067;-75
2021/03/01 07:04:22;;;;;;;27.83;16.77;;;0.50;23.60;;;;;;4900821;29;20060;-74
2021/03/01 07:06:50;;;;;;;28.48;17.20;;;0.60;22.30;;;;;;4903260;29;20052;-75
2021/03/01 07:09:19;;;;;;;33.58;18.65;;;0.70;21.00;;;;;;4902050;29;20062;-74
2021/03/01 07:11:46;;;;;;;28.50;16.27;;;0.80;20.30;;;;;;4903373;29;20455;-74
2021/03/01 07:14:15;;;;;;;25.38;14.77;;;1.00;19.00;;;;;;4902661;29;20067;-75
2021/03/01 07:16:43;;;;;;;27.25;16.52;;;1.00;17.90;;;;;;4898883;29;20056;-74
2021/03/01 07:19:14;;;;;;;27.73;16.85;;;1.10;17.20;;;;;;4901178;29;20242;-75
2021/03/01 07:21:43;;;;;;;29.23;15.38;;;1.20;16.90;;;;;;4906205;29;20059;-74
2021/03/01 07:24:10;;;;;;;28.33;14.75;;;1.30;15.80;;;;;;4900414;29;20051;-74
2021/03/01 07:26:38;;;;;;;29.40;15.88;;;1.40;15.30;;;;;;4909118;29;20054;-76
2021/03/01 07:29:09;;;;;;;26.90;15.57;;;1.50;14.70;;;;;;4904256;29;20399;-75
2021/03/01 07:31:38;;;;;;;30.42;15.85;;;1.60;13.90;;;;;;4904804;29;20075;-75
2021/03/01 07:34:07;;;;;;;29.45;16.42;;;1.70;14.00;;;;;;4899334;29;20052;-75
2021/03/01 07:36:35;;;;;;;29.02;16.25;;;1.70;13.60;;;;;;4906058;29;20048;-75
2021/03/01 07:39:05;;;;;;;26.67;15.55;;;1.80;13.20;;;;;;4903770;29;20044;-75
2021/03/01 07:41:32;;;;;;;27.33;14.38;;;1.90;12.50;;;;;;4903397;29;20056;-76
2021/03/01 07:44:01;;;;;;;24.23;14.73;;;2.10;11.10;;;;;;4902217;29;20475;-75
2021/03/01 07:46:30;;;;;;;25.27;13.30;;;2.20;10.20;;;;;;4902661;29;20103;-76
2021/03/01 07:48:57;;;;;;;21.98;12.73;;;2.30;8.70;;;;;;4899253;29;20503;-75
2021/03/01 07:51:45;;;;;;;24.85;14.80;;;2.50;7.40;;;;;;4901741;29;20596;-74
2021/03/01 07:54:14;;;;;;;27.67;12.23;;;2.60;6.90;;;;;;4901152;29;20059;-76
2021/03/01 07:56:51;;;;;;;27.20;12.57;;;2.60;6.10;;;;;;4904222;29;20054;-75
2021/03/01 07:59:34;;;;;;;25.58;12.23;;;2.70;5.90;;;;;;4912460;29;20414;-74
2021/03/01 08:02:22;;;;;;;22.23;11.50;;;2.80;5.20;;;;;;4908563;29;20501;-75
2021/03/01 08:04:50;;;;;;;24.00;12.75;;;2.90;4.00;;;;;;4904246;29;20147;-75
2021/03/01 08:07:18;;;;;;;23.40;11.45;;;3.10;3.70;;;;;;4906730;29;20049;-76
2021/03/01 08:09:55;;;;;;;21.27;11.68;;;3.10;2.60;;;;;;4908468;29;20048;-75
2021/03/01 08:12:53;;;;;;;18.67;11.00;;;3.10;1.90;;;;;;4907224;29;20052;-75
2021/03/01 08:15:23;;;;;;;20.55;11.48;;;3.20;1.60;;;;;;4903982;29;20062;-76
2021/03/01 08:17:51;;;;;;;20.05;10.90;;;3.20;1.40;;;;;;4904910;29;20070;-74
2021/03/01 08:20:55;;;;;;;22.67;10.63;;;3.30;1.00;;;;;;4904952;29;20131;-76
2021/03/01 08:23:31;;;;;;;18.83;10.75;;;3.30;1.00;;;;;;4892711;29;20814;-75
2021/03/01 08:26:02;;;;;;;24.23;10.45;;;3.40;1.00;;;;;;4908484;29;20056;-75
2021/03/01 08:28:52;;;;;;;19.80;10.18;;;3.40;1.00;;;;;;4906978;29;20060;-75
2021/03/01 08:31:38;;;;;;;21.67;10.90;;;3.60;1.00;;;;;;4905146;29;20492;-74
2021/03/01 08:34:29;;;;;;;20.90;10.30;;;3.60;1.00;;;;;;4896755;29;20056;-74
2021/03/01 08:36:57;;;;;;;20.33;9.82;;;3.70;1.00;;;;;;4902404;29;20048;-75
2021/03/01 08:39:57;;;;;;;18.05;10.25;;;3.70;1.00;;;;;;4909341;29;20059;-74
2021/03/01 08:42:53;;;;;;;23.90;11.82;;;3.70;1.00;;;;;;4895715;29;20044;-75
2021/03/01 08:45:40;;;;;;;18.88;11.20;;;3.90;1.00;;;;;;4904757;29;20470;-74
2021/03/01 08:48:09;;;;;;;17.63;10.13;;;4.10;1.00;;;;;;4904423;29;20056;-75
2021/03/01 08:50:38;;;;;;;19.70;10.45;;;4.20;1.00;;;;;;4907963;29;20054;-74
2021/03/01 08:53:11;;;;;;;20.10;11.38;;;4.30;1.00;;;;;;4901254;29;20149;-75
2021/03/01 08:55:40;;;;;;;20.23;10.25;;;4.30;1.00;;;;;;4906704;29;20445;-74
2021/03/01 08:58:12;;;;;;;16.48;9.73;;;4.40;1.00;;;;;;4904191;29;20044;-75
2021/03/01 09:00:49;;;;;;;22.05;10.98;;;4.60;1.00;;;;;;4905768;29;20135;-75
2021/03/01 09:03:25;;;;;;;18.65;10.63;;;4.60;1.00;;;;;;4902542;29;20040;-75
2021/03/01 09:05:54;;;;;;;20.58;10.35;;;4.70;1.00;;;;;;4903730;29;20048;-76
2021/03/01 09:08:27;;;;;;;16.30;9.20;;;5.10;1.00;;;;;;4905749;29;20804;-75
2021/03/01 09:10:56;;;;;;;15.98;9.23;;;5.20;1.00;;;;;;4905559;29;20052;-75
2021/03/01 09:13:24;;;;;;;16.63;9.23;;;5.20;1.00;;;;;;4903492;29;20056;-74
2021/03/01 09:15:51;;;;;;;15.80;9.05;;;5.30;1.00;;;;;;4904269;29;20049;-74
2021/03/01 09:18:19;;;;;;;18.73;10.15;;;5.40;1.00;;;;;;4903989;29;20057;-76
2021/03/01 09:20:52;;;;;;;17.52;9.50;;;5.70;1.00;;;;;;4900291;29;20053;-74
2021/03/01 09:23:32;;;;;;;17.33;9.90;;;5.80;1.00;;;;;;4904490;29;20451;-75
2021/03/01 09:25:59;;;;;;;16.20;9.25;;;5.90;1.00;;;;;;4902515;29;20055;-77
2021/03/01 09:28:31;;;;;;;17.65;9.82;;;5.70;1.00;;;;;;4903803;29;20060;-76
2021/03/01 09:31:06;;;;;;;16.60;9.05;;;5.90;1.00;;;;;;4906895;29;20521;-74
2021/03/01 09:33:33;;;;;;;14.65;8.13;;;6.00;1.00;;;;;;4903899;29;20053;-75
2021/03/01 09:36:00;;;;;;;16.25;8.20;;;6.10;1.00;;;;;;4905389;29;20068;-75
2021/03/01 09:38:28;;;;;;;16.13;8.18;;;6.20;1.00;;;;;;4902005;29;20056;-74
2021/03/01 09:41:00;;;;;;;13.07;8.25;;;6.30;1.00;;;;;;4903874;29;20072;-74
2021/03/01 09:43:27;;;;;;;17.13;8.45;;;6.50;1.00;;;;;;4904909;29;20048;-75
2021/03/01 09:45:55;;;;;;;20.00;8.85;;;6.50;1.00;;;;;;4906500;29;20052;-74
2021/03/01 09:48:22;;;;;;;14.20;8.30;;;6.60;1.00;;;;;;4903657;29;20048;-74
2021/03/01 09:50:50;;;;;;;16.42;9.10;;;6.80;1.00;;;;;;4906385;29;20514;-75
2021/03/01 09:53:18;;;;;;;17.92;9.10;;;6.80;1.00;;;;;;4900289;29;20053;-73
2021/03/01 09:55:50;;;;;;;15.70;8.63;;;6.90;1.00;;;;;;4900760;29;20059;-75
2021/03/01 09:58:26;;;;;;;16.25;7.60;;;7.00;1.00;;;;;;4900300;29;20460;-74
2021/03/01 10:00:53;;;;;;;14.93;8.65;;;7.20;1.00;;;;;;4908252;29;20427;-75
2021/03/01 10:03:20;;;;;;;16.13;7.60;;;7.40;1.00;;;;;;4903056;29;20091;-74
2021/03/01 10:05:48;;;;;;;12.60;7.43;;;7.20;1.00;;;;;;4903886;29;20160;-75
2021/03/01 10:08:21;;;;;;;14.02;8.00;;;7.30;1.00;;;;;;4902431;29;20063;-74
2021/03/01 10:10:48;;;;;;;15.18;8.68;;;7.60;1.00;;;;;;4905860;29;20063;-75
2021/03/01 10:13:25;;;;;;;13.35;8.45;;;7.70;1.00;;;;;;4901027;29;20063;-75
2021/03/01 10:15:54;;;;;;;18.27;9.00;;;7.80;1.00;;;;;;4904060;29;20052;-73
2021/03/01 10:18:22;;;;;;;11.70;7.78;;;7.90;1.00;;;;;;4903861;29;20056;-75
2021/03/01 10:21:08;;;;;;;12.48;8.10;;;7.80;1.00;;;;;;4905185;29;20217;-74
2021/03/01 10:23:37;;;;;;;14.40;8.52;;;7.90;1.00;;;;;;4900631;29;20487;-75
2021/03/01 10:26:19;;;;;;;12.07;7.60;;;8.10;1.00;;;;;;4903171;29;20598;-75
2021/03/01 10:28:58;;;;;;;16.55;8.50;;;8.30;1.00;;;;;;4905087;29;20095;-75
2021/03/01 10:31:31;;;;;;;15.43;8.30;;;8.40;1.00;;;;;;4901292;29;20115;-75
2021/03/01 10:34:01;;;;;;;14.32;7.65;;;8.30;1.00;;;;;;4892473;29;20052;-74
2021/03/01 10:36:32;;;;;;;13.13;7.93;;;8.50;1.00;;;;;;4897022;29;20415;-74
2021/03/01 10:39:16;;;;;;;15.18;7.13;;;8.40;1.00;;;;;;4897387;29;20143;-76
2021/03/01 10:41:45;;;;;;;13.15;7.80;;;8.50;1.00;;;;;;4901750;29;20195;-75
2021/03/01 10:44:13;;;;;;;12.65;7.88;;;8.70;1.00;;;;;;4898221;29;20171;-75
2021/03/01 10:46:44;;;;;;;11.13;7.20;;;8.90;1.00;;;;;;4905437;29;20048;-77
2021/03/01 10:49:30;;;;;;;14.32;7.43;;;9.00;1.00;;;;;;4906453;29;20140;-74
2021/03/01 10:51:58;;;;;;;12.52;7.78;;;9.20;1.00;;;;;;4900203;29;20063;-74
2021/03/01 10:54:26;;;;;;;10.18;7.38;;;9.30;1.00;;;;;;4900073;29;20048;-75
2021/03/01 10:56:53;;;;;;;12.52;7.47;;;9.30;1.00;;;;;;4898707;29;20052;-74
2021/03/01 10:59:20;;;;;;;15.20;8.40;;;9.30;1.00;;;;;;4903666;29;20056;-76
2021/03/01 11:01:49;;;;;;;11.85;7.60;;;9.30;1.00;;;;;;4903296;29;20056;-73
2021/03/01 11:04:18;;;;;;;11.95;7.40;;;9.50;1.00;;;;;;4898591;29;20054;-74
2021/03/01 11:06:46;;;;;;;13.93;7.40;;;9.70;1.00;;;;;;4903716;29;20055;-73
2021/03/01 11:09:14;;;;;;;11.25;7.35;;;9.70;1.00;;;;;;4902536;29;20056;-75
2021/03/01 11:11:41;;;;;;;10.63;7.40;;;9.90;1.00;;;;;;4906156;29;20055;-74
2021/03/01 11:14:10;;;;;;;10.23;7.28;;;10.00;1.00;;;;;;4895508;29;20052;-75
2021/03/01 11:16:37;;;;;;;12.70;8.05;;;10.20;1.00;;;;;;4904610;29;20055;-75
2021/03/01 11:19:08;;;;;;;11.95;7.65;;;10.30;1.00;;;;;;4903344;29;20533;-73
2021/03/01 11:21:36;;;;;;;11.52;7.45;;;10.20;1.00;;;;;;4904396;29;20134;-75
2021/03/01 11:24:04;;;;;;;12.00;7.90;;;10.20;1.00;;;;;;4900303;29;20062;-74
2021/03/01 11:26:32;;;;;;;13.45;8.27;;;10.50;1.00;;;;;;4905260;29;20077;-74
2021/03/01 11:28:59;;;;;;;17.38;8.38;;;10.50;1.00;;;;;;4901142;29;20100;-75
2021/03/01 11:31:29;;;;;;;19.77;8.48;;;10.40;1.00;;;;;;4904920;29;20074;-74
2021/03/01 11:33:57;;;;;;;13.95;7.50;;;10.50;1.00;;;;;;4898032;29;20053;-75
2021/03/01 11:36:25;;;;;;;15.05;8.40;;;10.70;1.00;;;;;;4902720;29;20064;-76
2021/03/01 11:38:52;;;;;;;13.02;8.25;;;10.80;1.00;;;;;;4903878;29;20723;-75
2021/03/01 11:41:19;;;;;;;11.38;7.68;;;10.80;1.00;;;;;;4904743;29;20546;-75
2021/03/01 11:43:48;;;;;;;13.50;7.95;;;10.90;1.00;;;;;;4899548;29;20096;-75
2021/03/01 11:46:16;;;;;;;11.13;6.78;;;10.80;1.00;;;;;;4902510;29;20044;-74
2021/03/01 11:48:44;;;;;;;13.07;7.45;;;10.80;1.00;;;;;;4902368;29;20503;-75
2021/03/01 11:51:12;;;;;;;10.77;7.45;;;11.00;1.00;;;;;;4904586;29;20100;-75
2021/03/01 11:53:40;;;;;;;10.77;7.70;;;11.00;1.00;;;;;;4904194;29;20138;-75
2021/03/01 11:56:08;;;;;;;12.32;7.18;;;11.00;1.00;;;;;;4903209;29;20056;-75
2021/03/01 11:58:36;;;;;;;12.13;7.75;;;11.00;1.00;;;;;;4900671;29;20052;-75
2021/03/01 12:01:04;;;;;;;11.90;7.32;;;11.20;1.00;;;;;;4903296;29;20069;-75
2021/03/01 12:03:33;;;;;;;10.68;7.15;;;11.30;1.00;;;;;;4902911;29;20048;-76
2021/03/01 12:06:01;;;;;;;11.35;7.40;;;11.40;1.00;;;;;;4898098;29;20529;-76
2021/03/01 12:08:28;;;;;;;12.05;7.85;;;11.30;1.00;;;;;;4898130;29;20049;-75
2021/03/01 12:10:56;;;;;;;16.23;6.95;;;11.30;1.00;;;;;;4902193;29;20088;-75
2021/03/01 12:13:23;;;;;;;10.85;8.07;;;11.50;1.00;;;;;;4903561;29;20052;-75
2021/03/01 12:15:50;;;;;;;16.52;7.40;;;11.50;1.00;;;;;;4901371;29;20511;-75
2021/03/01 12:18:17;;;;;;;12.90;7.45;;;11.70;1.00;;;;;;4900396;29;20056;-75
2021/03/01 12:20:44;;;;;;;10.80;6.95;;;11.80;1.00;;;;;;4904025;29;20081;-79
2021/03/01 12:23:13;;;;;;;10.70;7.03;;;11.90;1.00;;;;;;4899539;29;20483;-76
2021/03/01 12:25:40;;;;;;;10.82;6.68;;;11.80;1.00;;;;;;4897559;29;20048;-76
2021/03/01 12:28:08;;;;;;;9.68;6.95;;;11.90;1.00;;;;;;4901005;29;20063;-76
2021/03/01 12:30:35;;;;;;;11.85;7.53;;;12.00;1.00;;;;;;4902043;29;20048;-76
2021/03/01 12:33:03;;;;;;;12.02;6.40;;;11.90;1.00;;;;;;4899043;29;20646;-77
2021/03/01 12:35:32;;;;;;;11.40;6.18;;;12.00;1.00;;;;;;4899287;29;20578;-75
2021/03/01 12:38:00;;;;;;;11.57;6.05;;;12.10;1.00;;;;;;4898492;29;20103;-74
2021/03/01 12:40:27;;;;;;;11.68;7.32;;;12.20;1.00;;;;;;4905578;29;20139;-74
2021/03/01 12:42:59;;;;;;;12.10;6.85;;;12.30;1.00;;;;;;4897965;29;20181;-76
2021/03/01 12:45:27;;;;;;;11.63;6.70;;;12.10;1.00;;;;;;4903320;29;20067;-75
2021/03/01 12:47:54;;;;;;;10.40;5.97;;;12.20;1.00;;;;;;4906773;29;20139;-75
2021/03/01 12:50:22;;;;;;;9.05;6.43;;;12.40;1.00;;;;;;4907090;29;20059;-76
2021/03/01 12:52:49;;;;;;;9.93;6.53;;;12.50;1.00;;;;;;4905375;29;20495;-75
2021/03/01 12:55:16;;;;;;;10.55;6.03;;;12.30;1.00;;;;;;4903647;29;20151;-76
2021/03/01 12:57:43;;;;;;;10.35;7.22;;;12.40;1.00;;;;;;4904474;29;20052;-76